sensor_id;sensor_type;location;lat;lon;timestamp;pressure;altitude;pressure_sealevel;temperature;humidity
36932;BME280;22847;42.654;23.370;2023-02-11T00:01:42;96351.13;;;2.33;45.51
36932;BME280;22847;42.654;23.370;2023-02-11T00:04:08;96315.34;;;2.25;45.63
36932;BME280;22847;42.654;23.370;2023-02-11T00:06:34;96304.38;;;1.97;45.64
36932;BME280;22847;42.654;23.370;2023-02-11T00:09:00;96323.50;;;2.13;45.97
36932;BME280;22847;42.654;23.370;2023-02-11T00:11:26;96257.03;;;1.78;45.89
36932;BME280;22847;42.654;23.370;2023-02-11T00:14:00;96301.84;;;2.20;45.83
36932;BME280;22847;42.654;23.370;2023-02-11T00:16:26;96358.06;;;2.31;45.59
36932;BME280;22847;42.654;23.370;2023-02-11T00:18:52;96282.06;;;1.98;45.34
36932;BME280;22847;42.654;23.370;2023-02-11T00:21:23;96315.03;;;2.35;45.50
36932;BME280;22847;42.654;23.370;2023-02-11T00:23:49;96320.25;;;2.33;45.27
36932;BME280;22847;42.654;23.370;2023-02-11T00:26:20;96125.75;;;1.10;45.42
36932;BME280;22847;42.654;23.370;2023-02-11T00:28:47;96321.19;;;2.31;45.27
36932;BME280;22847;42.654;23.370;2023-02-11T00:31:14;96321.09;;;2.34;45.06
36932;BME280;22847;42.654;23.370;2023-02-11T00:33:40;96079.22;;;0.94;44.92
36932;BME280;22847;42.654;23.370;2023-02-11T00:36:08;96307.06;;;2.17;45.04
36932;BME280;22847;42.654;23.370;2023-02-11T00:38:33;96258.00;;;1.75;45.18
36932;BME280;22847;42.654;23.370;2023-02-11T00:40:59;96319.06;;;2.18;45.15
36932;BME280;22847;42.654;23.370;2023-02-11T00:43:24;96315.81;;;2.13;45.28
36932;BME280;22847;42.654;23.370;2023-02-11T00:45:50;96356.41;;;2.05;45.20
36932;BME280;22847;42.654;23.370;2023-02-11T00:48:15;96287.38;;;1.93;45.15
36932;BME280;22847;42.654;23.370;2023-02-11T00:50:41;96297.66;;;1.93;44.70
36932;BME280;22847;42.654;23.370;2023-02-11T00:53:06;96288.13;;;1.95;44.94
36932;BME280;22847;42.654;23.370;2023-02-11T00:55:32;96323.78;;;1.81;45.11
36932;BME280;22847;42.654;23.370;2023-02-11T00:57:58;96338.91;;;1.90;45.31
36932;BME280;22847;42.654;23.370;2023-02-11T01:00:24;96300.41;;;1.62;45.58
36932;BME280;22847;42.654;23.370;2023-02-11T01:02:50;96272.00;;;1.41;45.40
36932;BME280;22847;42.654;23.370;2023-02-11T01:05:16;96069.13;;;0.37;45.24
36932;BME280;22847;42.654;23.370;2023-02-11T01:07:42;96057.25;;;0.34;45.25
36932;BME280;22847;42.654;23.370;2023-02-11T01:10:07;96243.50;;;1.48;45.27
36932;BME280;22847;42.654;23.370;2023-02-11T01:12:33;96303.63;;;1.69;45.61
36932;BME280;22847;42.654;23.370;2023-02-11T01:14:58;96285.63;;;1.69;45.30
36932;BME280;22847;42.654;23.370;2023-02-11T01:17:24;96294.47;;;1.85;45.03
36932;BME280;22847;42.654;23.370;2023-02-11T01:19:49;96277.94;;;1.67;45.11
36932;BME280;22847;42.654;23.370;2023-02-11T01:22:15;96298.75;;;1.86;45.04
36932;BME280;22847;42.654;23.370;2023-02-11T01:24:40;96271.00;;;1.71;45.13
36932;BME280;22847;42.654;23.370;2023-02-11T01:27:05;96295.72;;;1.75;45.39
36932;BME280;22847;42.654;23.370;2023-02-11T01:29:31;96262.91;;;1.57;45.09
36932;BME280;22847;42.654;23.370;2023-02-11T01:31:56;96050.16;;;0.16;45.62
36932;BME280;22847;42.654;23.370;2023-02-11T01:34:22;96285.44;;;1.49;45.39
36932;BME280;22847;42.654;23.370;2023-02-11T01:36:47;96008.72;;;0.02;45.40
36932;BME280;22847;42.654;23.370;2023-02-11T01:39:12;96304.50;;;1.68;45.40
36932;BME280;22847;42.654;23.370;2023-02-11T01:41:38;96242.72;;;1.45;45.27
36932;BME280;22847;42.654;23.370;2023-02-11T01:44:27;96285.66;;;1.67;45.41
36932;BME280;22847;42.654;23.370;2023-02-11T01:46:53;96099.34;;;0.55;45.32
36932;BME280;22847;42.654;23.370;2023-02-11T01:49:30;96275.84;;;1.54;45.46
36932;BME280;22847;42.654;23.370;2023-02-11T01:54:34;96285.63;;;1.69;45.22
36932;BME280;22847;42.654;23.370;2023-02-11T01:57:21;96139.34;;;0.87;45.12
36932;BME280;22847;42.654;23.370;2023-02-11T02:10:23;96281.59;;;1.62;45.25
36932;BME280;22847;42.654;23.370;2023-02-11T02:12:49;96240.44;;;1.37;45.22
36932;BME280;22847;42.654;23.370;2023-02-11T02:18:01;96286.97;;;1.54;45.24
36932;BME280;22847;42.654;23.370;2023-02-11T02:31:13;96278.53;;;1.51;45.44
36932;BME280;22847;42.654;23.370;2023-02-11T02:39:11;96286.06;;;1.30;45.67
36932;BME280;22847;42.654;23.370;2023-02-11T02:41:40;96235.75;;;0.97;45.87
36932;BME280;22847;42.654;23.370;2023-02-11T02:44:07;96269.19;;;1.22;45.79
36932;BME280;22847;42.654;23.370;2023-02-11T02:46:33;96279.00;;;1.09;46.20
36932;BME280;22847;42.654;23.370;2023-02-11T02:49:00;96174.09;;;0.44;46.25
36932;BME280;22847;42.654;23.370;2023-02-11T02:54:57;96198.44;;;0.59;45.90
36932;BME280;22847;42.654;23.370;2023-02-11T02:57:59;96286.44;;;1.18;45.90
36932;BME280;22847;42.654;23.370;2023-02-11T03:03:42;96211.75;;;0.72;45.81
36932;BME280;22847;42.654;23.370;2023-02-11T03:06:33;96268.19;;;1.00;45.63
36932;BME280;22847;42.654;23.370;2023-02-11T03:09:08;96288.56;;;1.32;45.51
36932;BME280;22847;42.654;23.370;2023-02-11T03:11:37;96254.13;;;0.85;45.60
36932;BME280;22847;42.654;23.370;2023-02-11T03:14:07;96286.09;;;1.29;45.49
36932;BME280;22847;42.654;23.370;2023-02-11T03:16:33;96263.00;;;1.01;45.77
36932;BME280;22847;42.654;23.370;2023-02-11T03:19:18;96298.56;;;0.87;45.83
36932;BME280;22847;42.654;23.370;2023-02-11T03:21:46;96280.81;;;1.07;45.86
36932;BME280;22847;42.654;23.370;2023-02-11T03:24:20;96208.06;;;0.53;45.96
36932;BME280;22847;42.654;23.370;2023-02-11T03:26:51;96213.22;;;0.51;46.14
36932;BME280;22847;42.654;23.370;2023-02-11T03:30:24;96287.84;;;1.01;45.99
36932;BME280;22847;42.654;23.370;2023-02-11T03:32:28;96029.47;;;-0.61;46.13
36932;BME280;22847;42.654;23.370;2023-02-11T03:35:13;96210.81;;;0.47;46.43
36932;BME280;22847;42.654;23.370;2023-02-11T03:37:51;96259.31;;;0.82;46.08
36932;BME280;22847;42.654;23.370;2023-02-11T03:40:30;96332.81;;;0.86;46.34
36932;BME280;22847;42.654;23.370;2023-02-11T03:43:02;96320.03;;;0.84;46.45
36932;BME280;22847;42.654;23.370;2023-02-11T03:45:29;96263.25;;;0.66;46.68
36932;BME280;22847;42.654;23.370;2023-02-11T03:48:11;96282.56;;;0.77;46.64
36932;BME280;22847;42.654;23.370;2023-02-11T03:50:40;96122.25;;;-0.22;46.52
36932;BME280;22847;42.654;23.370;2023-02-11T03:53:06;96260.84;;;0.61;46.81
36932;BME280;22847;42.654;23.370;2023-02-11T03:55:36;96275.16;;;0.68;47.04
36932;BME280;22847;42.654;23.370;2023-02-11T03:58:02;96283.97;;;0.60;47.16
36932;BME280;22847;42.654;23.370;2023-02-11T04:00:36;96275.38;;;0.61;47.02
36932;BME280;22847;42.654;23.370;2023-02-11T04:03:03;96245.28;;;0.38;47.18
36932;BME280;22847;42.654;23.370;2023-02-11T04:05:29;96270.50;;;0.53;46.77
36932;BME280;22847;42.654;23.370;2023-02-11T04:07:54;96278.28;;;0.78;46.71
36932;BME280;22847;42.654;23.370;2023-02-11T04:10:19;96090.25;;;-0.37;46.73
36932;BME280;22847;42.654;23.370;2023-02-11T04:12:45;96268.91;;;0.77;46.51
36932;BME280;22847;42.654;23.370;2023-02-11T04:15:10;96260.81;;;0.63;46.44
36932;BME280;22847;42.654;23.370;2023-02-11T04:17:36;96230.00;;;0.63;46.39
36932;BME280;22847;42.654;23.370;2023-02-11T04:20:02;96244.44;;;0.65;46.34
36932;BME280;22847;42.654;23.370;2023-02-11T04:22:28;96283.94;;;0.89;46.36
36932;BME280;22847;42.654;23.370;2023-02-11T04:24:54;96304.66;;;0.83;46.37
36932;BME280;22847;42.654;23.370;2023-02-11T04:27:19;96216.22;;;0.37;46.55
36932;BME280;22847;42.654;23.370;2023-02-11T04:29:45;96305.06;;;0.69;46.71
36932;BME280;22847;42.654;23.370;2023-02-11T04:32:11;96207.50;;;0.14;47.00
36932;BME280;22847;42.654;23.370;2023-02-11T04:34:36;96286.63;;;0.57;47.25
36932;BME280;22847;42.654;23.370;2023-02-11T04:37:02;96034.63;;;-0.92;47.36
36932;BME280;22847;42.654;23.370;2023-02-11T04:39:27;96317.00;;;0.41;47.46
36932;BME280;22847;42.654;23.370;2023-02-11T04:41:53;96228.97;;;0.11;47.65
36932;BME280;22847;42.654;23.370;2023-02-11T04:44:18;96270.16;;;0.05;48.34
36932;BME280;22847;42.654;23.370;2023-02-11T04:46:44;96280.81;;;0.22;48.23
36932;BME280;22847;42.654;23.370;2023-02-11T04:49:12;96220.94;;;-0.38;49.18
36932;BME280;22847;42.654;23.370;2023-02-11T04:51:37;96025.84;;;-1.47;48.56
36932;BME280;22847;42.654;23.370;2023-02-11T04:54:03;95992.13;;;-1.61;48.26
36932;BME280;22847;42.654;23.370;2023-02-11T04:56:28;96304.88;;;-0.14;48.53
36932;BME280;22847;42.654;23.370;2023-02-11T04:58:54;96099.59;;;-1.30;48.80
36932;BME280;22847;42.654;23.370;2023-02-11T05:01:19;96323.09;;;-0.25;48.85
36932;BME280;22847;42.654;23.370;2023-02-11T05:03:45;96218.59;;;-0.78;48.95
36932;BME280;22847;42.654;23.370;2023-02-11T05:06:10;96243.19;;;-0.40;48.79
36932;BME280;22847;42.654;23.370;2023-02-11T05:08:36;96234.81;;;-0.46;48.88
36932;BME280;22847;42.654;23.370;2023-02-11T05:11:02;96279.06;;;-0.40;48.85
36932;BME280;22847;42.654;23.370;2023-02-11T05:13:28;96240.47;;;-0.67;49.39
36932;BME280;22847;42.654;23.370;2023-02-11T05:15:53;96005.06;;;-2.36;50.17
36932;BME280;22847;42.654;23.370;2023-02-11T05:18:19;96270.72;;;-0.47;49.52
36932;BME280;22847;42.654;23.370;2023-02-11T05:20:44;95995.66;;;-1.99;48.90
36932;BME280;22847;42.654;23.370;2023-02-11T05:23:10;96265.38;;;-0.39;49.06
36932;BME280;22847;42.654;23.370;2023-02-11T05:25:36;96249.13;;;-0.71;49.59
36932;BME280;22847;42.654;23.370;2023-02-11T05:28:02;96231.78;;;-0.61;49.35
36932;BME280;22847;42.654;23.370;2023-02-11T05:30:28;96206.81;;;-0.85;49.45
36932;BME280;22847;42.654;23.370;2023-02-11T05:32:54;96305.72;;;-0.46;49.25
36932;BME280;22847;42.654;23.370;2023-02-11T05:35:19;96288.66;;;-0.47;49.20
36932;BME280;22847;42.654;23.370;2023-02-11T05:37:45;96253.72;;;-0.50;49.05
36932;BME280;22847;42.654;23.370;2023-02-11T05:40:10;96267.81;;;-0.35;48.96
36932;BME280;22847;42.654;23.370;2023-02-11T05:42:36;96208.91;;;-0.67;48.83
36932;BME280;22847;42.654;23.370;2023-02-11T05:45:02;96264.53;;;-0.40;48.96
36932;BME280;22847;42.654;23.370;2023-02-11T05:47:28;96296.84;;;-0.34;49.09
36932;BME280;22847;42.654;23.370;2023-02-11T05:49:53;96069.44;;;-1.85;50.04
36932;BME280;22847;42.654;23.370;2023-02-11T05:52:20;96169.78;;;-1.05;49.70
36932;BME280;22847;42.654;23.370;2023-02-11T05:54:45;96012.47;;;-1.90;49.35
36932;BME280;22847;42.654;23.370;2023-02-11T05:57:10;95993.34;;;-2.09;49.33
36932;BME280;22847;42.654;23.370;2023-02-11T05:59:36;96239.28;;;-0.86;50.03
36932;BME280;22847;42.654;23.370;2023-02-11T06:02:01;96313.56;;;-0.54;50.13
36932;BME280;22847;42.654;23.370;2023-02-11T06:04:27;96124.56;;;-1.75;50.31
36932;BME280;22847;42.654;23.370;2023-02-11T06:06:52;96321.34;;;-0.57;50.13
36932;BME280;22847;42.654;23.370;2023-02-11T06:09:18;96315.03;;;0.21;49.05
36932;BME280;22847;42.654;23.370;2023-02-11T06:11:43;96286.13;;;1.01;46.70
36932;BME280;22847;42.654;23.370;2023-02-11T06:14:08;96040.47;;;1.00;44.12
36932;BME280;22847;42.654;23.370;2023-02-11T06:16:35;96016.03;;;3.45;39.45
36932;BME280;22847;42.654;23.370;2023-02-11T06:19:00;96265.53;;;7.44;34.69
36932;BME280;22847;42.654;23.370;2023-02-11T06:21:25;96264.28;;;8.82;31.94
36932;BME280;22847;42.654;23.370;2023-02-11T06:23:51;96253.91;;;10.78;29.20
36932;BME280;22847;42.654;23.370;2023-02-11T06:26:19;96217.47;;;12.41;26.87
36932;BME280;22847;42.654;23.370;2023-02-11T06:28:45;96283.19;;;13.70;25.28
36932;BME280;22847;42.654;23.370;2023-02-11T06:31:11;96239.91;;;15.19;23.44
36932;BME280;22847;42.654;23.370;2023-02-11T06:33:37;96230.28;;;16.44;22.23
36932;BME280;22847;42.654;23.370;2023-02-11T06:36:03;96259.41;;;17.26;20.64
36932;BME280;22847;42.654;23.370;2023-02-11T06:38:29;96169.25;;;17.40;20.34
36932;BME280;22847;42.654;23.370;2023-02-11T06:40:54;96232.63;;;18.37;19.00
36932;BME280;22847;42.654;23.370;2023-02-11T06:43:20;96237.34;;;18.95;18.82
36932;BME280;22847;42.654;23.370;2023-02-11T06:45:51;96157.66;;;18.56;18.39
36932;BME280;22847;42.654;23.370;2023-02-11T06:48:16;96233.25;;;18.75;18.48
36932;BME280;22847;42.654;23.370;2023-02-11T06:50:42;96230.47;;;18.76;18.57
36932;BME280;22847;42.654;23.370;2023-02-11T06:53:07;96271.91;;;18.32;18.77
36932;BME280;22847;42.654;23.370;2023-02-11T06:55:33;96238.09;;;18.36;18.48
36932;BME280;22847;42.654;23.370;2023-02-11T06:57:59;96182.53;;;18.71;18.45
36932;BME280;22847;42.654;23.370;2023-02-11T07:00:24;96252.59;;;19.43;17.89
36932;BME280;22847;42.654;23.370;2023-02-11T07:02:50;96076.56;;;18.98;17.41
36932;BME280;22847;42.654;23.370;2023-02-11T07:05:16;96035.59;;;19.02;17.04
36932;BME280;22847;42.654;23.370;2023-02-11T07:07:41;96245.03;;;20.30;17.21
36932;BME280;22847;42.654;23.370;2023-02-11T07:10:07;96235.06;;;20.24;17.04
36932;BME280;22847;42.654;23.370;2023-02-11T07:12:32;96225.47;;;20.47;17.02
36932;BME280;22847;42.654;23.370;2023-02-11T07:14:58;96231.09;;;20.53;17.01
36932;BME280;22847;42.654;23.370;2023-02-11T07:17:23;96230.28;;;20.52;16.96
36932;BME280;22847;42.654;23.370;2023-02-11T07:19:49;96227.44;;;20.70;16.74
36932;BME280;22847;42.654;23.370;2023-02-11T07:22:14;96141.53;;;19.75;16.83
36932;BME280;22847;42.654;23.370;2023-02-11T07:24:40;96221.84;;;20.32;17.02
36932;BME280;22847;42.654;23.370;2023-02-11T07:27:05;96197.28;;;19.82;17.08
36932;BME280;22847;42.654;23.370;2023-02-11T07:29:31;96068.38;;;18.59;17.71
36932;BME280;22847;42.654;23.370;2023-02-11T07:31:57;96227.28;;;18.98;18.21
36932;BME280;22847;42.654;23.370;2023-02-11T07:34:22;96172.88;;;17.39;18.94
36932;BME280;22847;42.654;23.370;2023-02-11T07:36:48;96216.69;;;16.95;20.06
36932;BME280;22847;42.654;23.370;2023-02-11T07:39:13;96207.19;;;16.29;20.69
36932;BME280;22847;42.654;23.370;2023-02-11T07:41:39;96209.91;;;15.22;21.90
36932;BME280;22847;42.654;23.370;2023-02-11T07:44:05;96216.06;;;14.61;22.47
36932;BME280;22847;42.654;23.370;2023-02-11T07:46:31;95970.31;;;12.88;23.20
36932;BME280;22847;42.654;23.370;2023-02-11T07:48:59;96213.34;;;14.21;23.41
36932;BME280;22847;42.654;23.370;2023-02-11T07:51:27;96208.09;;;13.48;24.07
36932;BME280;22847;42.654;23.370;2023-02-11T07:53:53;96213.66;;;12.89;24.41
36932;BME280;22847;42.654;23.370;2023-02-11T07:56:20;95989.44;;;11.36;24.45
36932;BME280;22847;42.654;23.370;2023-02-11T07:58:46;96129.00;;;11.67;25.61
36932;BME280;22847;42.654;23.370;2023-02-11T08:01:17;96200.06;;;11.72;26.02
36932;BME280;22847;42.654;23.370;2023-02-11T08:03:43;96179.34;;;11.81;26.17
36932;BME280;22847;42.654;23.370;2023-02-11T08:06:16;96228.38;;;12.13;26.08
36932;BME280;22847;42.654;23.370;2023-02-11T08:08:43;96190.28;;;11.75;26.04
36932;BME280;22847;42.654;23.370;2023-02-11T08:11:14;96206.09;;;11.13;27.55
36932;BME280;22847;42.654;23.370;2023-02-11T08:13:40;96217.63;;;10.11;31.23
36932;BME280;22847;42.654;23.370;2023-02-11T08:16:06;96208.03;;;9.99;28.40
36932;BME280;22847;42.654;23.370;2023-02-11T08:18:33;96023.63;;;8.76;28.53
36932;BME280;22847;42.654;23.370;2023-02-11T08:21:06;95929.25;;;7.95;28.89
36932;BME280;22847;42.654;23.370;2023-02-11T08:23:32;96189.91;;;9.46;29.40
36932;BME280;22847;42.654;23.370;2023-02-11T08:26:02;96161.59;;;9.14;30.06
36932;BME280;22847;42.654;23.370;2023-02-11T08:28:28;96208.44;;;9.14;30.38
36932;BME280;22847;42.654;23.370;2023-02-11T08:30:53;96203.19;;;9.02;30.48
36932;BME280;22847;42.654;23.370;2023-02-11T08:33:19;96168.31;;;8.50;30.30
36932;BME280;22847;42.654;23.370;2023-02-11T08:35:44;95947.25;;;6.87;31.02
36932;BME280;22847;42.654;23.370;2023-02-11T08:38:09;96202.06;;;8.08;31.99
36932;BME280;22847;42.654;23.370;2023-02-11T08:40:35;96211.69;;;8.06;32.90
36932;BME280;22847;42.654;23.370;2023-02-11T08:43:00;96023.47;;;6.98;33.18
36932;BME280;22847;42.654;23.370;2023-02-11T08:45:26;96253.00;;;7.96;35.04
36932;BME280;22847;42.654;23.370;2023-02-11T08:47:51;95973.19;;;6.27;32.66
36932;BME280;22847;42.654;23.370;2023-02-11T08:50:16;96170.66;;;7.69;32.47
36932;BME280;22847;42.654;23.370;2023-02-11T08:52:42;96259.69;;;8.15;33.17
36932;BME280;22847;42.654;23.370;2023-02-11T08:55:09;96205.81;;;8.46;32.20
36932;BME280;22847;42.654;23.370;2023-02-11T08:57:34;96233.44;;;8.19;32.37
36932;BME280;22847;42.654;23.370;2023-02-11T09:00:00;96232.63;;;7.89;32.33
36932;BME280;22847;42.654;23.370;2023-02-11T09:02:25;96211.16;;;8.15;32.90
36932;BME280;22847;42.654;23.370;2023-02-11T09:04:50;96250.31;;;8.26;32.67
36932;BME280;22847;42.654;23.370;2023-02-11T09:07:16;96172.69;;;8.36;31.58
36932;BME280;22847;42.654;23.370;2023-02-11T09:09:41;95983.97;;;7.51;31.81
36932;BME280;22847;42.654;23.370;2023-02-11T09:12:07;96030.97;;;7.47;32.54
36932;BME280;22847;42.654;23.370;2023-02-11T09:14:32;96236.41;;;8.84;32.12
36932;BME280;22847;42.654;23.370;2023-02-11T09:16:58;96197.63;;;8.93;31.13
36932;BME280;22847;42.654;23.370;2023-02-11T09:19:23;96195.56;;;8.72;32.21
36932;BME280;22847;42.654;23.370;2023-02-11T09:21:49;96190.16;;;8.75;32.01
36932;BME280;22847;42.654;23.370;2023-02-11T09:24:14;96149.47;;;8.74;31.57
36932;BME280;22847;42.654;23.370;2023-02-11T09:26:41;96184.03;;;9.29;31.45
36932;BME280;22847;42.654;23.370;2023-02-11T09:29:07;96226.72;;;9.54;31.25
36932;BME280;22847;42.654;23.370;2023-02-11T09:31:33;96227.69;;;9.38;30.46
36932;BME280;22847;42.654;23.370;2023-02-11T09:34:01;96129.84;;;9.09;30.75
36932;BME280;22847;42.654;23.370;2023-02-11T09:36:29;96168.66;;;9.39;31.05
36932;BME280;22847;42.654;23.370;2023-02-11T09:38:57;96150.69;;;9.86;30.13
36932;BME280;22847;42.654;23.370;2023-02-11T09:44:24;95954.69;;;8.44;30.45
36932;BME280;22847;42.654;23.370;2023-02-11T09:46:57;96156.81;;;9.73;30.29
36932;BME280;22847;42.654;23.370;2023-02-11T09:49:45;96164.22;;;10.04;29.68
36932;BME280;22847;42.654;23.370;2023-02-11T09:54:58;96147.38;;;10.35;29.07
36932;BME280;22847;42.654;23.370;2023-02-11T09:57:29;96113.00;;;10.17;28.63
36932;BME280;22847;42.654;23.370;2023-02-11T09:59:56;96154.44;;;10.33;28.53
36932;BME280;22847;42.654;23.370;2023-02-11T10:05:34;96138.41;;;10.76;27.96
36932;BME280;22847;42.654;23.370;2023-02-11T10:08:12;96148.66;;;10.66;28.10
36932;BME280;22847;42.654;23.370;2023-02-11T10:15:50;96077.75;;;9.74;28.93
36932;BME280;22847;42.654;23.370;2023-02-11T10:21:18;96101.28;;;10.23;29.27
36932;BME280;22847;42.654;23.370;2023-02-11T10:23:48;95738.31;;;8.15;28.81
36932;BME280;22847;42.654;23.370;2023-02-11T10:26:18;96077.50;;;10.27;28.64
36932;BME280;22847;42.654;23.370;2023-02-11T10:28:47;95855.63;;;8.61;29.57
36932;BME280;22847;42.654;23.370;2023-02-11T10:33:50;96070.63;;;9.00;28.60
36932;BME280;22847;42.654;23.370;2023-02-11T10:36:20;95850.28;;;7.98;28.33
36932;BME280;22847;42.654;23.370;2023-02-11T10:38:48;96050.97;;;9.47;28.46
36932;BME280;22847;42.654;23.370;2023-02-11T10:41:17;96039.13;;;9.43;28.61
36932;BME280;22847;42.654;23.370;2023-02-11T10:43:44;95797.44;;;8.24;28.42
36932;BME280;22847;42.654;23.370;2023-02-11T10:46:16;95677.22;;;7.72;28.00
36932;BME280;22847;42.654;23.370;2023-02-11T10:48:48;96031.63;;;10.12;27.48
36932;BME280;22847;42.654;23.370;2023-02-11T10:51:18;96023.19;;;10.21;27.19
36932;BME280;22847;42.654;23.370;2023-02-11T10:53:45;95998.06;;;10.20;27.04
36932;BME280;22847;42.654;23.370;2023-02-11T10:56:20;95783.50;;;9.01;27.02
36932;BME280;22847;42.654;23.370;2023-02-11T10:59:01;95970.59;;;10.27;25.49
36932;BME280;22847;42.654;23.370;2023-02-11T11:01:40;95964.19;;;10.20;25.91
36932;BME280;22847;42.654;23.370;2023-02-11T11:04:43;96007.00;;;10.29;27.00
36932;BME280;22847;42.654;23.370;2023-02-11T11:07:10;95999.84;;;10.07;27.48
36932;BME280;22847;42.654;23.370;2023-02-11T11:09:55;95997.84;;;10.23;28.22
36932;BME280;22847;42.654;23.370;2023-02-11T11:15:23;96026.91;;;9.56;27.79
36932;BME280;22847;42.654;23.370;2023-02-11T11:18:08;95944.88;;;9.37;27.95
36932;BME280;22847;42.654;23.370;2023-02-11T11:20:33;95988.69;;;9.81;27.83
36932;BME280;22847;42.654;23.370;2023-02-11T11:23:29;95955.53;;;9.22;28.16
36932;BME280;22847;42.654;23.370;2023-02-11T11:26:11;95979.66;;;9.49;29.34
36932;BME280;22847;42.654;23.370;2023-02-11T11:29:00;96036.06;;;9.23;29.32
36932;BME280;22847;42.654;23.370;2023-02-11T11:31:30;95943.66;;;9.18;29.22
36932;BME280;22847;42.654;23.370;2023-02-11T11:33:58;95775.34;;;8.44;28.58
36932;BME280;22847;42.654;23.370;2023-02-11T11:36:37;95978.56;;;9.64;28.38
36932;BME280;22847;42.654;23.370;2023-02-11T11:39:17;95888.69;;;9.22;27.83
36932;BME280;22847;42.654;23.370;2023-02-11T11:41:58;95965.91;;;9.34;28.72
36932;BME280;22847;42.654;23.370;2023-02-11T11:52:49;95737.19;;;8.19;28.28
36932;BME280;22847;42.654;23.370;2023-02-11T11:55:49;95966.09;;;9.57;28.46
36932;BME280;22847;42.654;23.370;2023-02-11T11:58:21;95999.09;;;9.69;27.65
36932;BME280;22847;42.654;23.370;2023-02-11T12:14:58;95928.56;;;9.72;28.64
36932;BME280;22847;42.654;23.370;2023-02-11T12:26:35;95749.03;;;8.61;29.85
36932;BME280;22847;42.654;23.370;2023-02-11T12:29:30;95850.31;;;9.37;29.86
36932;BME280;22847;42.654;23.370;2023-02-11T12:40:11;95913.56;;;9.75;28.16
36932;BME280;22847;42.654;23.370;2023-02-11T12:43:01;95883.13;;;9.76;27.57
36932;BME280;22847;42.654;23.370;2023-02-11T12:53:35;95879.09;;;9.59;28.75
36932;BME280;22847;42.654;23.370;2023-02-11T12:58:49;95720.25;;;8.64;27.55
36932;BME280;22847;42.654;23.370;2023-02-11T13:01:24;95829.13;;;9.30;28.25
36932;BME280;22847;42.654;23.370;2023-02-11T13:04:06;95867.72;;;9.73;27.79
36932;BME280;22847;42.654;23.370;2023-02-11T13:06:39;95818.84;;;9.53;27.90
36932;BME280;22847;42.654;23.370;2023-02-11T13:09:42;95848.50;;;9.26;29.10
36932;BME280;22847;42.654;23.370;2023-02-11T13:12:02;95735.00;;;8.64;28.40
36932;BME280;22847;42.654;23.370;2023-02-11T13:14:51;95822.81;;;9.46;27.82
36932;BME280;22847;42.654;23.370;2023-02-11T13:17:29;95854.31;;;9.66;26.91
36932;BME280;22847;42.654;23.370;2023-02-11T13:20:02;95657.28;;;8.35;27.81
36932;BME280;22847;42.654;23.370;2023-02-11T13:25:06;95608.09;;;7.83;27.85
36932;BME280;22847;42.654;23.370;2023-02-11T13:27:59;95800.81;;;8.77;29.18
36932;BME280;22847;42.654;23.370;2023-02-11T13:30:31;95631.72;;;8.04;28.71
36932;BME280;22847;42.654;23.370;2023-02-11T13:35:35;95850.09;;;9.53;27.85
36932;BME280;22847;42.654;23.370;2023-02-11T13:38:03;95880.72;;;9.49;27.48
36932;BME280;22847;42.654;23.370;2023-02-11T13:40:37;95843.81;;;9.31;27.58
36932;BME280;22847;42.654;23.370;2023-02-11T13:43:06;95676.28;;;8.11;27.76
36932;BME280;22847;42.654;23.370;2023-02-11T13:45:44;95881.91;;;9.20;28.02
36932;BME280;22847;42.654;23.370;2023-02-11T13:48:21;95607.63;;;8.02;28.48
36932;BME280;22847;42.654;23.370;2023-02-11T13:50:50;95837.41;;;9.48;27.62
36932;BME280;22847;42.654;23.370;2023-02-11T13:53:18;95801.19;;;9.32;27.63
36932;BME280;22847;42.654;23.370;2023-02-11T13:55:47;95830.34;;;9.37;28.38
36932;BME280;22847;42.654;23.370;2023-02-11T14:14:16;95753.38;;;9.22;25.90
36932;BME280;22847;42.654;23.370;2023-02-11T14:19:38;95813.88;;;9.50;26.27
36932;BME280;22847;42.654;23.370;2023-02-11T14:24:59;95842.19;;;9.54;26.11
36932;BME280;22847;42.654;23.370;2023-02-11T14:27:48;95808.94;;;9.58;26.32
36932;BME280;22847;42.654;23.370;2023-02-11T14:41:56;95636.28;;;8.26;27.06
36932;BME280;22847;42.654;23.370;2023-02-11T14:44:27;95786.47;;;9.20;27.44
36932;BME280;22847;42.654;23.370;2023-02-11T14:46:55;95636.72;;;8.32;27.06
36932;BME280;22847;42.654;23.370;2023-02-11T14:49:30;95562.56;;;7.90;27.20
36932;BME280;22847;42.654;23.370;2023-02-11T14:52:05;95582.81;;;7.85;27.72
36932;BME280;22847;42.654;23.370;2023-02-11T14:54:32;95807.38;;;9.19;27.40
36932;BME280;22847;42.654;23.370;2023-02-11T14:59:30;95426.78;;;6.13;28.33
36932;BME280;22847;42.654;23.370;2023-02-11T15:01:56;95804.16;;;8.54;28.48
36932;BME280;22847;42.654;23.370;2023-02-11T15:04:26;95839.31;;;8.46;28.66
36932;BME280;22847;42.654;23.370;2023-02-11T15:06:53;95791.56;;;8.60;28.75
36932;BME280;22847;42.654;23.370;2023-02-11T15:11:59;95569.63;;;7.25;28.72
36932;BME280;22847;42.654;23.370;2023-02-11T15:14:27;95771.22;;;8.41;28.78
36932;BME280;22847;42.654;23.370;2023-02-11T15:16:57;95602.88;;;7.33;28.74
36932;BME280;22847;42.654;23.370;2023-02-11T15:19:29;95792.09;;;8.40;28.80
36932;BME280;22847;42.654;23.370;2023-02-11T15:21:57;95781.69;;;8.15;29.42
36932;BME280;22847;42.654;23.370;2023-02-11T15:24:29;95803.38;;;8.14;29.36
36932;BME280;22847;42.654;23.370;2023-02-11T15:27:02;95771.16;;;8.03;29.60
36932;BME280;22847;42.654;23.370;2023-02-11T15:29:36;95548.66;;;6.51;29.64
36932;BME280;22847;42.654;23.370;2023-02-11T15:32:03;95771.06;;;7.66;29.98
36932;BME280;22847;42.654;23.370;2023-02-11T15:34:30;95761.63;;;7.65;30.70
36932;BME280;22847;42.654;23.370;2023-02-11T15:36:55;95777.59;;;7.58;30.20
36932;BME280;22847;42.654;23.370;2023-02-11T15:39:39;95740.91;;;7.38;30.65
36932;BME280;22847;42.654;23.370;2023-02-11T15:42:24;95780.00;;;7.61;30.51
36932;BME280;22847;42.654;23.370;2023-02-11T15:45:10;95774.38;;;7.55;30.84